Time;durP1;ratioP1;P1;durP2;ratioP2;P2;SDS_P1;SDS_P2;PMS_P1;PMS_P2;Temp;Humidity;BMP_temperature;BMP_pressure;BME280_temperature;BME280_humidity;BME280_pressure;Samples;Min_cycle;Max_cycle;Signal;HPM_P1;HPM_P2
2020/12/06 00:01:36;;;;;;;22.73;10.40;;;;;;;-3.00;86.07;101059.63;3507788;28;20185;-59
2020/12/06 00:03:17;;;;;;;29.13;10.30;;;;;;;-3.02;85.76;101073.81;3498825;28;20162;-41
2020/12/06 00:04:59;;;;;;;21.90;9.02;;;;;;;-3.05;85.59;101073.53;3502723;28;20068;-41
2020/12/06 00:06:40;;;;;;;23.70;9.25;;;;;;;-3.07;85.56;101069.97;3496486;28;20060;-41
2020/12/06 00:08:22;;;;;;;18.10;8.27;;;;;;;-3.09;85.34;101068.94;3497653;28;20055;-41
2020/12/06 00:10:04;;;;;;;25.02;9.60;;;;;;;-3.12;85.29;101068.66;3497716;28;20509;-56
2020/12/06 00:11:46;;;;;;;19.58;8.95;;;;;;;-3.15;85.20;101066.72;3504222;28;20059;-57
2020/12/06 00:13:28;;;;;;;19.77;8.20;;;;;;;-3.20;85.05;101063.78;3501926;28;20508;-56
2020/12/06 00:15:11;;;;;;;19.07;8.17;;;;;;;-3.22;85.20;101056.75;3502197;28;20050;-58
2020/12/06 00:16:52;;;;;;;20.75;9.10;;;;;;;-3.23;84.98;101062.63;3502114;28;20286;-56
2020/12/06 00:18:34;;;;;;;20.33;9.00;;;;;;;-3.26;84.88;101067.41;3500122;28;20052;-55
2020/12/06 00:20:15;;;;;;;21.30;8.48;;;;;;;-3.30;85.01;101070.44;3497010;28;20077;-57
2020/12/06 00:21:57;;;;;;;22.70;9.82;;;;;;;-3.34;85.21;101071.78;3497430;28;20165;-41
2020/12/06 00:23:38;;;;;;;23.42;10.18;;;;;;;-3.37;84.87;101063.88;3500651;28;20048;-41
2020/12/06 00:25:20;;;;;;;22.77;9.20;;;;;;;-3.41;85.00;101070.34;3503632;28;20044;-42
2020/12/06 00:27:01;;;;;;;20.20;9.80;;;;;;;-3.43;85.06;101074.38;3497939;28;20086;-42
2020/12/06 00:28:43;;;;;;;21.02;9.63;;;;;;;-3.45;84.81;101074.97;3499403;28;20040;-41
2020/12/06 00:30:25;;;;;;;22.58;9.73;;;;;;;-3.48;85.01;101078.13;3504371;28;20048;-41
2020/12/06 00:32:06;;;;;;;17.45;9.50;;;;;;;-3.50;84.89;101081.25;3501763;28;20463;-41
2020/12/06 00:33:48;;;;;;;24.05;10.20;;;;;;;-3.51;84.65;101079.50;3502812;28;20040;-41
2020/12/06 00:35:29;;;;;;;20.00;10.02;;;;;;;-3.53;84.57;101075.94;3505808;28;20079;-42
2020/12/06 00:37:10;;;;;;;25.90;10.35;;;;;;;-3.57;84.43;101075.63;3502922;28;20071;-41
2020/12/06 00:38:52;;;;;;;20.25;9.48;;;;;;;-3.60;84.60;101071.94;3496099;28;20529;-43
2020/12/06 00:40:33;;;;;;;25.30;11.13;;;;;;;-3.61;84.55;101072.66;3502805;28;20072;-41
2020/12/06 00:42:15;;;;;;;23.88;9.95;;;;;;;-3.64;84.46;101073.28;3502166;28;20421;-42
2020/12/06 00:43:57;;;;;;;19.58;8.10;;;;;;;-3.66;84.64;101066.28;3500630;28;20044;-41
2020/12/06 00:45:38;;;;;;;22.52;9.93;;;;;;;-3.68;84.33;101058.53;3502667;28;20076;-57
2020/12/06 00:47:20;;;;;;;21.05;9.60;;;;;;;-3.69;84.46;101063.47;3502706;28;20131;-41
2020/12/06 00:49:01;;;;;;;22.52;9.27;;;;;;;-3.74;84.58;101062.16;3502955;28;20448;-41
2020/12/06 00:50:43;;;;;;;22.27;9.68;;;;;;;-3.76;84.80;101067.97;3498839;28;20585;-41
2020/12/06 00:52:24;;;;;;;17.25;7.75;;;;;;;-3.78;84.99;101063.50;3498599;28;20097;-58
2020/12/06 00:54:06;;;;;;;22.13;8.65;;;;;;;-3.81;84.67;101060.69;3500526;28;20106;-59
2020/12/06 00:55:47;;;;;;;23.25;9.93;;;;;;;-3.82;84.37;101061.41;3500342;28;20093;-59
2020/12/06 00:57:29;;;;;;;20.98;9.18;;;;;;;-3.83;84.41;101070.69;3503090;28;20075;-59
2020/12/06 00:59:11;;;;;;;23.75;9.95;;;;;;;-3.85;84.25;101069.66;3500084;28;20044;-43
2020/12/06 01:00:52;;;;;;;18.25;8.82;;;;;;;-3.88;83.88;101066.81;3498884;28;20056;-43
2020/12/06 01:02:34;;;;;;;19.33;8.65;;;;;;;-3.89;84.14;101066.66;3502468;28;20040;-43
2020/12/06 01:04:15;;;;;;;21.13;8.77;;;;;;;-3.94;84.07;101061.19;3499194;28;20049;-59
2020/12/06 01:05:56;;;;;;;21.13;9.25;;;;;;;-3.96;83.92;101062.66;3498994;28;20047;-59
2020/12/06 01:07:38;;;;;;;17.75;8.65;;;;;;;-3.98;84.05;101061.63;3501275;28;20131;-59
2020/12/06 01:09:20;;;;;;;18.52;9.68;;;;;;;-4.01;84.14;101061.34;3497552;28;20087;-58
2020/12/06 01:11:01;;;;;;;21.35;9.73;;;;;;;-4.04;83.99;101061.97;3499551;28;20048;-58
2020/12/06 01:12:47;;;;;;;18.35;8.70;;;;;;;-4.06;84.13;101063.47;3501930;28;20398;-58
2020/12/06 01:14:29;;;;;;;21.48;8.68;;;;;;;-4.08;84.12;101061.50;3498094;28;20564;-43
2020/12/06 01:16:13;;;;;;;20.15;8.70;;;;;;;-4.13;84.32;101058.56;3502310;28;20101;-43
2020/12/06 01:17:54;;;;;;;20.45;7.97;;;;;;;-4.16;84.35;101063.34;3500233;28;20055;-43
2020/12/06 01:19:36;;;;;;;22.60;8.10;;;;;;;-4.18;84.31;101054.72;3496726;28;20497;-42
2020/12/06 01:21:17;;;;;;;20.65;9.00;;;;;;;-4.20;84.34;101063.81;3504713;28;20059;-59
2020/12/06 01:22:59;;;;;;;19.48;8.35;;;;;;;-4.23;84.05;101064.38;3501778;28;20072;-58
2020/12/06 01:24:40;;;;;;;23.00;8.90;;;;;;;-4.26;83.79;101065.75;3504160;28;20520;-43
2020/12/06 01:26:21;;;;;;;20.73;9.25;;;;;;;-4.29;83.82;101065.44;3506854;28;20079;-43
2020/12/06 01:28:03;;;;;;;17.65;8.68;;;;;;;-4.33;83.63;101059.19;3503261;28;20133;-59
2020/12/06 01:29:45;;;;;;;19.02;8.57;;;;;;;-4.36;83.69;101062.34;3501139;28;20482;-58
2020/12/06 01:31:26;;;;;;;22.60;8.27;;;;;;;-4.38;83.57;101063.84;3504658;28;20075;-59
2020/12/06 01:33:08;;;;;;;19.58;8.77;;;;;;;-4.39;83.63;101066.22;3499764;28;20078;-58
2020/12/06 01:34:50;;;;;;;19.17;7.97;;;;;;;-4.41;83.58;101061.00;3503123;28;20110;-42
2020/12/06 01:36:31;;;;;;;21.55;9.27;;;;;;;-4.42;83.67;101069.34;3502644;28;20047;-43
2020/12/06 01:38:13;;;;;;;22.40;8.82;;;;;;;-4.45;83.86;101071.59;3502414;28;20048;-59
2020/12/06 01:39:54;;;;;;;20.00;9.10;;;;;;;-4.47;83.80;101072.19;3505282;28;20499;-59
2020/12/06 01:41:36;;;;;;;18.25;8.20;;;;;;;-4.49;83.76;101071.16;3503132;28;20064;-43
2020/12/06 01:43:17;;;;;;;21.33;8.75;;;;;;;-4.50;83.76;101074.44;3502158;28;20098;-42
2020/12/06 01:45:00;;;;;;;23.90;10.18;;;;;;;-4.50;83.75;101071.91;3503013;28;20079;-43
2020/12/06 01:46:42;;;;;;;26.37;9.40;;;;;;;-4.55;83.81;101064.75;3503907;28;20052;-43
2020/12/06 01:48:24;;;;;;;21.02;8.98;;;;;;;-4.57;83.75;101072.97;3502643;28;20420;-42
2020/12/06 01:50:05;;;;;;;17.75;9.07;;;;;;;-4.58;83.80;101068.63;3503148;28;20064;-59
2020/12/06 01:51:52;;;;;;;20.92;8.50;;;;;;;-4.58;83.73;101071.16;3502212;28;20380;-59
2020/12/06 01:53:34;;;;;;;17.80;8.77;;;;;;;-4.61;83.55;101063.25;3499326;28;20059;-43
2020/12/06 01:55:17;;;;;;;20.05;7.63;;;;;;;-4.63;83.61;101065.69;3500681;28;20041;-43
2020/12/06 01:56:58;;;;;;;23.70;8.18;;;;;;;-4.64;83.95;101065.53;3502180;28;20055;-42
2020/12/06 01:58:40;;;;;;;20.05;8.73;;;;;;;-4.66;83.58;101067.03;3501058;28;20076;-43
2020/12/06 02:00:22;;;;;;;22.98;9.27;;;;;;;-4.67;83.62;101078.75;3502848;28;20139;-43
2020/12/06 02:02:04;;;;;;;18.65;8.05;;;;;;;-4.69;83.56;101066.72;3502128;28;20512;-42
2020/12/06 02:03:46;;;;;;;19.90;8.95;;;;;;;-4.70;83.56;101068.34;3499169;28;20133;-43
2020/12/06 02:05:28;;;;;;;22.02;9.52;;;;;;;-4.72;83.42;101070.75;3503713;28;20076;-43
2020/12/06 02:07:09;;;;;;;18.33;7.97;;;;;;;-4.73;83.37;101065.53;3499382;28;20194;-42
2020/12/06 02:08:51;;;;;;;17.77;8.55;;;;;;;-4.75;83.56;101075.50;3501536;28;20044;-43
2020/12/06 02:10:33;;;;;;;18.63;8.32;;;;;;;-4.78;83.49;101070.13;3502021;28;20429;-43
2020/12/06 02:12:14;;;;;;;16.23;7.40;;;;;;;-4.78;83.31;101069.25;3499338;28;20133;-42
2020/12/06 02:13:56;;;;;;;20.60;8.05;;;;;;;-4.81;83.44;101067.28;3500561;28;20101;-59
2020/12/06 02:15:38;;;;;;;25.05;8.95;;;;;;;-4.83;83.53;101073.84;3501807;28;20083;-58
2020/12/06 02:17:19;;;;;;;19.48;7.97;;;;;;;-4.85;83.80;101072.81;3502591;28;20085;-59
2020/12/06 02:19:00;;;;;;;15.80;6.45;;;;;;;-4.84;83.83;101071.16;3501352;28;20071;-42
2020/12/06 02:20:43;;;;;;;13.88;6.93;;;;;;;-4.86;83.83;101073.53;3501961;28;20048;-42
2020/12/06 02:22:24;;;;;;;20.60;8.13;;;;;;;-4.84;83.63;101083.81;3501250;28;20044;-58
2020/12/06 02:24:07;;;;;;;23.33;8.57;;;;;;;-4.86;83.34;101077.72;3502319;28;20052;-58
2020/12/06 02:25:48;;;;;;;20.17;8.63;;;;;;;-4.88;82.97;101079.22;3503476;28;20607;-58
2020/12/06 02:27:30;;;;;;;19.58;8.35;;;;;;;-4.91;83.28;101075.66;3500028;28;20072;-58
2020/12/06 02:29:12;;;;;;;20.27;7.63;;;;;;;-4.91;83.15;101077.28;3504623;28;20469;-43
2020/12/06 02:30:53;;;;;;;20.50;8.35;;;;;;;-4.93;83.27;101073.69;3498086;28;20096;-43
2020/12/06 02:32:34;;;;;;;16.45;7.00;;;;;;;-4.96;83.45;101078.50;3501746;28;20079;-43
2020/12/06 02:34:16;;;;;;;22.00;7.97;;;;;;;-4.97;83.82;101079.25;3502179;28;20539;-43
2020/12/06 02:35:58;;;;;;;19.98;8.05;;;;;;;-4.98;83.70;101079.97;3501733;28;20366;-43
2020/12/06 02:37:40;;;;;;;20.30;8.57;;;;;;;-4.98;83.73;101085.94;3502971;28;20134;-42
2020/12/06 02:39:23;;;;;;;18.73;7.40;;;;;;;-4.99;83.45;101084.16;3501989;28;20107;-42
2020/12/06 02:41:04;;;;;;;17.00;7.10;;;;;;;-5.00;83.50;101079.84;3502845;28;20075;-58
2020/12/06 02:42:45;;;;;;;19.40;8.18;;;;;;;-5.00;83.65;101081.47;3500801;28;20386;-58
2020/12/06 02:44:27;;;;;;;18.10;8.32;;;;;;;-5.02;83.54;101081.31;3500982;28;20094;-43
2020/12/06 02:46:08;;;;;;;18.80;8.10;;;;;;;-5.02;83.52;101083.84;3499044;28;20326;-42
2020/12/06 02:47:50;;;;;;;14.95;6.93;;;;;;;-5.02;83.18;101081.31;3503416;28;20425;-43
2020/12/06 02:49:31;;;;;;;23.50;9.15;;;;;;;-5.03;83.09;101083.72;3502627;28;20048;-40
2020/12/06 02:51:13;;;;;;;22.75;8.52;;;;;;;-5.05;83.14;101092.78;3500309;28;20076;-41
2020/12/06 02:52:57;;;;;;;15.05;8.43;;;;;;;-5.06;83.09;101085.94;3503829;28;20044;-57
2020/12/06 02:54:40;;;;;;;20.88;8.23;;;;;;;-5.08;83.15;101088.31;3500121;28;20054;-56
2020/12/06 02:56:22;;;;;;;16.75;7.40;;;;;;;-5.10;83.21;101095.75;3500159;28;20044;-56
2020/12/06 02:58:03;;;;;;;14.50;7.15;;;;;;;-5.12;83.11;101081.19;3501559;28;20080;-56
2020/12/06 02:59:45;;;;;;;20.63;8.18;;;;;;;-5.14;83.05;101081.03;3499160;28;20047;-58
2020/12/06 03:01:30;;;;;;;14.70;6.95;;;;;;;-5.16;83.15;101089.19;3502425;28;20500;-56
2020/12/06 03:03:12;;;;;;;20.17;8.85;;;;;;;-5.18;83.02;101083.09;3504136;28;20084;-41
2020/12/06 03:04:53;;;;;;;16.15;7.53;;;;;;;-5.21;82.81;101087.84;3495673;28;20143;-56
2020/12/06 03:06:35;;;;;;;13.57;6.63;;;;;;;-5.24;82.73;101082.50;3501883;28;20075;-56
2020/12/06 03:08:17;;;;;;;15.18;7.00;;;;;;;-5.26;83.04;101086.47;3499360;28;20087;-56
2020/12/06 03:09:58;;;;;;;19.13;7.30;;;;;;;-5.30;82.94;101086.19;3498725;28;20080;-59
2020/12/06 03:11:40;;;;;;;15.02;6.35;;;;;;;-5.33;82.79;101090.94;3502149;28;20109;-56
2020/12/06 03:13:22;;;;;;;16.08;6.25;;;;;;;-5.36;82.75;101085.56;3501835;28;20041;-56
2020/12/06 03:15:04;;;;;;;17.25;8.00;;;;;;;-5.38;82.72;101092.13;3501523;28;20097;-41
2020/12/06 03:16:45;;;;;;;18.63;7.18;;;;;;;-5.39;82.87;101091.97;3501495;28;20056;-40
2020/12/06 03:18:27;;;;;;;14.43;7.32;;;;;;;-5.40;82.93;101095.25;3500227;28;20462;-40
2020/12/06 03:20:08;;;;;;;17.25;7.38;;;;;;;-5.43;82.81;101097.47;3499891;28;20492;-40
2020/12/06 03:21:50;;;;;;;16.60;7.45;;;;;;;-5.45;82.85;101101.50;3503642;28;20498;-43
2020/12/06 03:23:32;;;;;;;17.15;7.50;;;;;;;-5.46;82.87;101105.63;3500648;28;20048;-56
2020/12/06 03:25:13;;;;;;;18.02;7.57;;;;;;;-5.49;82.86;101103.69;3497671;28;20408;-56
2020/12/06 03:26:55;;;;;;;15.57;6.47;;;;;;;-5.50;82.93;101106.06;3501360;28;20052;-56
2020/12/06 03:28:36;;;;;;;15.60;6.57;;;;;;;-5.51;83.00;101106.78;3498701;28;20075;-56
2020/12/06 03:30:18;;;;;;;16.83;7.07;;;;;;;-5.52;82.86;101112.59;3502696;28;20093;-40
2020/12/06 03:31:59;;;;;;;15.25;6.40;;;;;;;-5.55;82.75;101113.19;3500192;28;20109;-40
2020/12/06 03:33:41;;;;;;;15.27;6.97;;;;;;;-5.56;82.80;101111.41;3499510;28;20497;-56
2020/12/06 03:35:23;;;;;;;18.30;7.18;;;;;;;-5.59;82.66;101121.22;3502360;28;20587;-56
2020/12/06 03:37:06;;;;;;;11.05;6.22;;;;;;;-5.60;82.81;101114.38;3501648;28;20122;-56
2020/12/06 03:38:47;;;;;;;17.08;7.03;;;;;;;-5.62;82.83;101117.47;3501646;28;20386;-56
2020/12/06 03:40:29;;;;;;;12.88;7.03;;;;;;;-5.64;82.88;101124.91;3501826;28;20109;-56
2020/12/06 03:42:12;;;;;;;16.52;7.05;;;;;;;-5.65;82.64;101127.28;3497631;28;20548;-56
2020/12/06 03:43:53;;;;;;;17.85;7.22;;;;;;;-5.68;82.68;101128.75;3499289;28;20062;-56
2020/12/06 03:45:34;;;;;;;17.20;6.88;;;;;;;-5.69;82.76;101128.59;3501636;28;20048;-56
2020/12/06 03:47:17;;;;;;;12.73;5.72;;;;;;;-5.70;82.76;101124.28;3502396;28;20056;-56
2020/12/06 03:48:58;;;;;;;17.25;7.32;;;;;;;-5.72;82.74;101124.13;3500697;28;20051;-56
2020/12/06 03:50:40;;;;;;;16.73;7.60;;;;;;;-5.74;82.72;101123.09;3501370;28;20052;-40
2020/12/06 03:52:23;;;;;;;13.02;6.22;;;;;;;-5.75;82.71;101118.75;3500082;28;20056;-40
2020/12/06 03:54:04;;;;;;;15.13;7.03;;;;;;;-5.78;82.84;101120.97;3502780;28;20062;-56
2020/12/06 03:55:46;;;;;;;11.88;5.72;;;;;;;-5.77;82.89;101130.34;3500269;28;20084;-57
2020/12/06 03:57:27;;;;;;;15.68;6.53;;;;;;;-5.79;82.88;101129.31;3502038;28;20501;-40
2020/12/06 03:59:08;;;;;;;19.13;6.75;;;;;;;-5.80;82.91;101130.03;3503309;28;20056;-40
2020/12/06 04:00:50;;;;;;;16.60;7.28;;;;;;;-5.81;83.01;101130.78;3499041;28;20048;-41
2020/12/06 04:02:31;;;;;;;15.95;6.13;;;;;;;-5.81;83.15;101132.41;3499920;28;20497;-40
2020/12/06 04:04:13;;;;;;;16.63;7.90;;;;;;;-5.81;83.05;101133.31;3500813;28;20101;-56
2020/12/06 04:05:54;;;;;;;12.68;5.72;;;;;;;-5.83;82.95;101133.88;3497989;28;20048;-56
2020/12/06 04:07:36;;;;;;;14.00;6.57;;;;;;;-5.84;82.76;101139.69;3499670;28;20547;-56
2020/12/06 04:09:17;;;;;;;14.63;6.50;;;;;;;-5.88;82.76;101129.25;3501242;28;20072;-56
2020/12/06 04:10:59;;;;;;;19.17;8.32;;;;;;;-5.89;82.63;101127.47;3499862;28;20043;-56
2020/12/06 04:12:40;;;;;;;14.95;6.63;;;;;;;-5.89;82.80;101131.63;3500050;28;20049;-56
2020/12/06 04:14:22;;;;;;;13.07;5.90;;;;;;;-5.90;82.74;101129.81;3501960;28;20047;-56
2020/12/06 04:16:03;;;;;;;14.32;6.90;;;;;;;-5.91;82.71;101139.06;3497141;28;20098;-56
2020/12/06 04:17:45;;;;;;;11.95;6.18;;;;;;;-5.92;82.67;101137.28;3501431;28;20055;-56
2020/12/06 04:19:26;;;;;;;16.45;6.60;;;;;;;-5.96;82.67;101137.69;3496256;28;20053;-40
2020/12/06 04:21:11;;;;;;;18.35;7.90;;;;;;;-5.96;82.55;101137.69;3498683;28;20052;-40
2020/12/06 04:22:53;;;;;;;11.05;6.00;;;;;;;-5.97;82.61;101140.97;3500650;28;20079;-40
2020/12/06 04:24:35;;;;;;;19.90;8.07;;;;;;;-6.00;82.58;101135.59;3499850;28;20055;-40
2020/12/06 04:26:16;;;;;;;14.65;7.07;;;;;;;-6.02;82.53;101139.59;3499795;28;20064;-40
2020/12/06 04:27:58;;;;;;;17.20;6.75;;;;;;;-6.03;82.46;101142.84;3501414;28;20048;-40
2020/12/06 04:29:39;;;;;;;16.33;6.22;;;;;;;-6.05;82.48;101139.28;3502209;28;20542;-40
2020/12/06 04:31:20;;;;;;;18.70;7.15;;;;;;;-6.07;82.56;101138.22;3501942;28;20044;-40
2020/12/06 04:33:02;;;;;;;18.05;6.88;;;;;;;-6.07;82.65;101140.75;3500785;28;20463;-40
2020/12/06 04:34:45;;;;;;;20.15;7.20;;;;;;;-6.09;82.70;101140.59;3499071;28;20056;-56
2020/12/06 04:36:27;;;;;;;21.02;7.88;;;;;;;-6.10;82.50;101138.78;3500926;28;20044;-56
2020/12/06 04:38:09;;;;;;;18.85;8.23;;;;;;;-6.12;82.42;101142.78;3500040;28;20068;-40
2020/12/06 04:39:50;;;;;;;13.27;6.93;;;;;;;-6.13;82.61;101141.00;3498969;28;20174;-55
2020/12/06 04:41:35;;;;;;;13.77;6.78;;;;;;;-6.12;82.75;101139.38;3500477;28;20139;-40
2020/12/06 04:43:18;;;;;;;16.50;6.80;;;;;;;-6.14;82.70;101139.22;3498557;28;20044;-41
2020/12/06 04:45:01;;;;;;;14.10;6.88;;;;;;;-6.14;82.73;101143.38;3499282;28;20071;-40
2020/12/06 04:46:42;;;;;;;21.23;7.35;;;;;;;-6.14;82.80;101138.31;3502058;28;20356;-40
2020/12/06 04:48:35;;;;;;;13.73;6.93;;;;;;;-6.15;82.65;101139.06;3499735;28;20466;-40
2020/12/06 04:50:25;;;;;;;17.38;7.68;;;;;;;-6.17;82.53;101131.31;3498367;28;20051;-40
2020/12/06 04:52:18;;;;;;;14.30;6.93;;;;;;;-6.18;82.71;101132.06;3501461;28;20053;-40
2020/12/06 04:54:03;;;;;;;19.40;7.57;;;;;;;-6.18;82.71;101141.25;3501309;28;20048;-56
2020/12/06 04:55:46;;;;;;;14.27;6.80;;;;;;;-6.19;82.67;101142.88;3502643;28;20052;-56
2020/12/06 04:57:29;;;;;;;15.02;6.68;;;;;;;-6.22;82.75;101136.63;3503255;28;20173;-57
2020/12/06 04:59:12;;;;;;;16.70;7.28;;;;;;;-6.23;82.41;101138.28;3502783;28;20048;-40
2020/12/06 05:00:54;;;;;;;16.63;6.82;;;;;;;-6.24;82.62;101139.00;3504219;28;20056;-56
2020/12/06 05:02:39;;;;;;;16.55;6.63;;;;;;;-6.24;82.45;101144.03;3505660;28;20048;-40
2020/12/06 05:04:23;;;;;;;15.55;6.70;;;;;;;-6.26;82.60;101148.94;3500309;28;20044;-40
2020/12/06 05:06:05;;;;;;;16.33;6.63;;;;;;;-6.28;82.42;101152.94;3501365;28;20144;-41
2020/12/06 05:07:50;;;;;;;15.07;6.45;;;;;;;-6.29;82.55;101142.66;3504124;28;20083;-40
2020/12/06 05:09:37;;;;;;;16.55;7.18;;;;;;;-6.31;82.75;101147.56;3502831;28;20101;-40
2020/12/06 05:11:19;;;;;;;17.80;7.07;;;;;;;-6.31;82.73;101155.13;3503182;28;20044;-40
2020/12/06 05:13:01;;;;;;;18.85;8.27;;;;;;;-6.30;82.59;101151.88;3503861;28;20404;-56
2020/12/06 05:14:42;;;;;;;16.17;6.45;;;;;;;-6.30;82.58;101149.34;3503955;28;20048;-40
2020/12/06 05:16:24;;;;;;;17.73;7.82;;;;;;;-6.30;82.54;101158.56;3504388;28;20052;-56
2020/12/06 05:18:06;;;;;;;13.60;6.53;;;;;;;-6.29;82.32;101156.22;3504531;28;20048;-40
2020/12/06 05:19:47;;;;;;;19.00;6.35;;;;;;;-6.29;82.30;101157.81;3498973;28;20090;-40
2020/12/06 05:21:36;;;;;;;14.55;6.38;;;;;;;-6.30;82.22;101156.94;3503052;28;20044;-40
2020/12/06 05:23:19;;;;;;;14.35;6.10;;;;;;;-6.31;82.24;101156.78;3503292;28;20125;-40
2020/12/06 05:25:01;;;;;;;14.23;6.40;;;;;;;-6.33;82.35;101159.13;3502314;28;20052;-40
2020/12/06 05:26:43;;;;;;;15.70;6.22;;;;;;;-6.32;82.25;101157.53;3501866;28;20444;-40
2020/12/06 05:28:25;;;;;;;18.08;6.53;;;;;;;-6.33;82.36;101154.06;3502632;28;20044;-57
2020/12/06 05:30:06;;;;;;;15.65;6.43;;;;;;;-6.33;82.27;101151.56;3500640;28;20489;-57
2020/12/06 05:31:48;;;;;;;13.25;6.68;;;;;;;-6.34;82.02;101157.34;3502016;28;20117;-40
2020/12/06 05:33:30;;;;;;;13.68;6.88;;;;;;;-6.34;81.82;101154.84;3502614;28;20052;-40
2020/12/06 05:35:12;;;;;;;13.93;6.50;;;;;;;-6.34;81.72;101157.34;3502643;28;20110;-40
2020/12/06 05:36:54;;;;;;;13.10;6.28;;;;;;;-6.34;81.81;101156.44;3503080;28;20731;-55
2020/12/06 05:38:35;;;;;;;13.45;6.18;;;;;;;-6.35;81.82;101149.63;3502290;28;20641;-40
2020/12/06 05:40:17;;;;;;;15.68;7.22;;;;;;;-6.38;81.85;101152.69;3503791;28;20052;-40
2020/12/06 05:42:00;;;;;;;16.80;6.70;;;;;;;-6.38;81.79;101147.66;3503904;28;20040;-40
2020/12/06 05:43:42;;;;;;;17.27;7.25;;;;;;;-6.38;81.73;101147.66;3501320;28;20060;-57
2020/12/06 05:45:23;;;;;;;15.23;7.13;;;;;;;-6.38;81.75;101161.91;3501637;28;20087;-40
2020/12/06 05:47:12;;;;;;;13.85;6.65;;;;;;;-6.39;81.69;101158.50;3498742;28;20048;-40
2020/12/06 05:48:54;;;;;;;13.95;6.40;;;;;;;-6.38;81.63;101161.91;3499475;28;20057;-56
2020/12/06 05:50:35;;;;;;;12.95;6.13;;;;;;;-6.39;81.65;101163.56;3502040;28;20055;-56
2020/12/06 05:52:18;;;;;;;13.77;6.28;;;;;;;-6.38;81.67;101162.81;3502586;28;20105;-57
2020/12/06 05:53:59;;;;;;;12.18;5.88;;;;;;;-6.39;81.66;101163.56;3501168;28;20049;-40
2020/12/06 05:55:43;;;;;;;18.00;6.57;;;;;;;-6.39;81.79;101166.06;3502085;28;20413;-40
2020/12/06 05:57:26;;;;;;;13.77;5.97;;;;;;;-6.38;81.75;101159.38;3502286;28;20048;-40
2020/12/06 05:59:08;;;;;;;15.38;7.07;;;;;;;-6.38;81.65;101166.97;3503654;28;20055;-40
2020/12/06 06:00:50;;;;;;;15.85;6.65;;;;;;;-6.38;81.62;101164.44;3500458;28;20072;-40
2020/12/06 06:02:33;;;;;;;18.58;6.78;;;;;;;-6.38;81.39;101167.84;3502356;28;20483;-40
2020/12/06 06:04:20;;;;;;;13.13;7.23;;;;;;;-6.36;81.46;101168.00;3499686;28;20048;-56
2020/12/06 06:06:04;;;;;;;13.68;6.30;;;;;;;-6.37;81.31;101174.69;3502065;28;20470;-57
2020/12/06 06:07:48;;;;;;;14.23;6.28;;;;;;;-6.37;81.48;101168.78;3502062;28;20424;-56
2020/12/06 06:09:33;;;;;;;14.20;6.28;;;;;;;-6.38;81.60;101172.00;3503873;28;20044;-56
2020/12/06 06:11:27;;;;;;;18.33;7.45;;;;;;;-6.37;81.44;101171.28;3497387;28;20116;-57
2020/12/06 06:13:09;;;;;;;16.27;6.28;;;;;;;-6.37;81.24;101172.19;3503921;28;20055;-57
2020/12/06 06:14:52;;;;;;;14.85;6.45;;;;;;;-6.35;81.28;101175.75;3501841;28;20048;-57
2020/12/06 06:16:35;;;;;;;16.00;6.70;;;;;;;-6.32;81.04;101182.78;3503144;28;20044;-56
2020/12/06 06:18:18;;;;;;;14.10;5.75;;;;;;;-6.32;81.10;101182.78;3502408;28;20040;-56
2020/12/06 06:20:00;;;;;;;14.60;6.63;;;;;;;-6.33;80.85;101179.31;3500846;28;20082;-57
2020/12/06 06:21:44;;;;;;;17.40;6.50;;;;;;;-6.31;80.89;101182.00;3503693;28;20052;-57
2020/12/06 06:23:25;;;;;;;17.38;6.97;;;;;;;-6.30;80.70;101184.72;3503766;28;20082;-56
2020/12/06 06:25:09;;;;;;;15.18;7.55;;;;;;;-6.29;80.80;101189.03;3504281;28;20044;-56
2020/12/06 06:26:52;;;;;;;15.20;7.28;;;;;;;-6.28;80.86;101188.28;3502925;28;20079;-56
2020/12/06 06:28:36;;;;;;;14.83;6.60;;;;;;;-6.27;80.87;101182.50;3501887;28;20073;-41
2020/12/06 06:30:19;;;;;;;16.30;6.25;;;;;;;-6.25;81.10;101190.25;3500944;28;20285;-41
2020/12/06 06:32:01;;;;;;;11.70;6.38;;;;;;;-6.23;81.23;101186.25;3501920;28;20141;-41
2020/12/06 06:33:43;;;;;;;11.57;5.15;;;;;;;-6.21;81.05;101192.34;3503184;28;20055;-41
2020/12/06 06:35:25;;;;;;;14.70;6.25;;;;;;;-6.20;81.00;101186.53;3501404;28;20072;-41
2020/12/06 06:37:12;;;;;;;17.30;6.95;;;;;;;-6.18;81.11;101187.63;3500738;28;20185;-41
2020/12/06 06:38:55;;;;;;;13.82;7.43;;;;;;;-6.14;81.00;101191.38;3501339;28;20052;-41
2020/12/06 06:40:37;;;;;;;20.83;9.20;;;;;;;-6.11;80.95;101191.66;3500742;28;20090;-41
2020/12/06 06:42:26;;;;;;;23.55;11.63;;;;;;;-6.06;81.16;101195.56;3501162;28;20071;-42
2020/12/06 06:44:08;;;;;;;22.10;11.02;;;;;;;-5.98;81.41;101198.91;3503578;28;20087;-58
2020/12/06 06:45:49;;;;;;;24.77;11.02;;;;;;;-5.93;81.49;101197.75;3500220;28;20056;-58
2020/12/06 06:47:34;;;;;;;24.88;11.07;;;;;;;-5.85;81.42;101189.31;3501594;28;20071;-41
2020/12/06 06:49:15;;;;;;;24.15;10.20;;;;;;;-5.78;81.59;101190.84;3501765;28;20079;-41
2020/12/06 06:50:58;;;;;;;23.42;9.93;;;;;;;-5.70;81.31;101180.78;3503334;28;20055;-58
2020/12/06 06:52:41;;;;;;;20.85;9.07;;;;;;;-5.61;81.57;101185.00;3499170;28;20476;-58
2020/12/06 06:54:27;;;;;;;18.52;9.20;;;;;;;-5.50;81.74;101184.44;3503793;28;20305;-58
2020/12/06 06:56:09;;;;;;;22.08;10.10;;;;;;;-5.37;81.90;101189.09;3501705;28;20048;-58
2020/12/06 06:57:52;;;;;;;20.17;10.20;;;;;;;-5.27;80.58;101178.28;3499906;28;20055;-58
2020/12/06 06:59:36;;;;;;;18.90;8.82;;;;;;;-5.17;80.27;101183.53;3500447;28;20141;-59
2020/12/06 07:01:23;;;;;;;17.13;8.70;;;;;;;-5.06;80.98;101177.91;3500211;28;20056;-58
2020/12/06 07:03:12;;;;;;;19.98;8.52;;;;;;;-4.93;80.51;101180.91;3501834;28;20676;-58
2020/12/06 07:04:53;;;;;;;17.15;7.30;;;;;;;-4.82;80.23;101188.63;3502436;28;20197;-57
2020/12/06 07:06:48;;;;;;;16.67;7.78;;;;;;;-4.76;79.34;101190.13;3502429;28;20470;-57
2020/12/06 07:08:30;;;;;;;15.77;7.05;;;;;;;-4.63;80.02;101188.81;3499719;28;20059;-57
2020/12/06 07:10:13;;;;;;;16.63;7.65;;;;;;;-4.54;78.62;101184.66;3503014;28;20047;-58
2020/12/06 07:11:55;;;;;;;14.77;5.65;;;;;;;-4.47;78.37;101186.16;3499175;28;20079;-58
2020/12/06 07:13:40;;;;;;;14.30;6.55;;;;;;;-4.40;78.85;101184.38;3499696;28;20047;-58
2020/12/06 07:15:23;;;;;;;16.08;7.47;;;;;;;-4.30;78.74;101188.69;3505739;28;20087;-58
2020/12/06 07:17:04;;;;;;;16.15;6.65;;;;;;;-4.19;78.22;101193.16;3501002;28;20045;-58
2020/12/06 07:18:46;;;;;;;15.68;6.93;;;;;;;-4.15;77.71;101192.72;3498282;28;20109;-59
2020/12/06 07:20:28;;;;;;;12.40;6.10;;;;;;;-4.04;78.05;101188.66;3500741;28;20481;-58
2020/12/06 07:22:09;;;;;;;16.17;6.65;;;;;;;-3.96;77.54;101192.84;3500864;28;20064;-58
2020/12/06 07:23:51;;;;;;;15.23;6.10;;;;;;;-3.83;77.60;101196.56;3498381;28;20394;-58
2020/12/06 07:25:33;;;;;;;14.85;6.32;;;;;;;-3.74;76.45;101205.03;3496769;28;20075;-57
2020/12/06 07:27:15;;;;;;;15.48;5.75;;;;;;;-3.68;75.84;101192.91;3497662;28;20523;-57
2020/12/06 07:28:58;;;;;;;17.35;6.25;;;;;;;-3.58;76.14;101194.69;3495231;28;20683;-58
2020/12/06 07:30:43;;;;;;;14.13;6.00;;;;;;;-3.50;74.71;101190.31;3497851;28;20040;-58
2020/12/06 07:32:25;;;;;;;16.73;6.47;;;;;;;-3.41;75.16;101199.72;3496552;28;20095;-58
2020/12/06 07:34:06;;;;;;;15.70;6.60;;;;;;;-3.30;76.84;101203.25;3494792;28;20102;-58
2020/12/06 07:35:48;;;;;;;18.08;6.55;;;;;;;-3.22;76.33;101199.78;3501104;28;20044;-59
2020/12/06 07:37:29;;;;;;;16.13;7.13;;;;;;;-3.13;75.51;101198.84;3502215;28;20071;-58
2020/12/06 07:39:15;;;;;;;15.82;6.72;;;;;;;-3.04;74.71;101202.22;3497583;28;20503;-58
2020/12/06 07:41:02;;;;;;;12.10;5.95;;;;;;;-2.99;72.83;101198.47;3503396;28;20052;-59
2020/12/06 07:42:43;;;;;;;12.75;5.53;;;;;;;-2.92;74.56;101197.38;3500092;28;20052;-59
2020/12/06 07:44:25;;;;;;;17.23;7.05;;;;;;;-2.85;74.70;101199.72;3504025;28;20072;-59
2020/12/06 07:46:14;;;;;;;14.18;6.30;;;;;;;-2.77;75.07;101198.78;3500736;28;20094;-58
2020/12/06 07:47:56;;;;;;;15.43;6.45;;;;;;;-2.72;73.88;101199.22;3496017;28;20121;-58
2020/12/06 07:49:42;;;;;;;13.95;6.35;;;;;;;-2.70;71.52;101200.25;3497272;28;20436;-58
2020/12/06 07:51:25;;;;;;;16.52;6.82;;;;;;;-2.67;72.19;101205.59;3499898;28;20561;-59